sensor_id;sensor_type;location;lat;lon;timestamp;pressure;altitude;pressure_sealevel;temperature;humidity
76378;BME280;65200;49.500;8.654;2024-02-23T00:01:39;98301.31;;;13.19;49.40
76378;BME280;65200;49.500;8.654;2024-02-23T00:04:06;98302.38;;;13.23;50.39
76378;BME280;65200;49.500;8.654;2024-02-23T00:06:35;98303.78;;;13.30;49.74
76378;BME280;65200;49.500;8.654;2024-02-23T00:09:03;98320.09;;;13.14;48.67
76378;BME280;65200;49.500;8.654;2024-02-23T00:11:32;98312.09;;;12.71;50.19
76378;BME280;65200;49.500;8.654;2024-02-23T00:14:00;98324.94;;;12.90;49.25
76378;BME280;65200;49.500;8.654;2024-02-23T00:16:29;98343.00;;;12.47;51.57
76378;BME280;65200;49.500;8.654;2024-02-23T00:18:56;98353.69;;;12.90;49.55
76378;BME280;65200;49.500;8.654;2024-02-23T00:21:24;98345.88;;;12.88;51.93
76378;BME280;65200;49.500;8.654;2024-02-23T00:23:52;98367.00;;;13.01;50.68
76378;BME280;65200;49.500;8.654;2024-02-23T00:26:19;98379.16;;;12.82;52.27
76378;BME280;65200;49.500;8.654;2024-02-23T00:28:48;98379.47;;;12.64;53.63
76378;BME280;65200;49.500;8.654;2024-02-23T00:31:16;98385.75;;;12.48;52.63
76378;BME280;65200;49.500;8.654;2024-02-23T00:33:43;98370.81;;;12.35;54.69
76378;BME280;65200;49.500;8.654;2024-02-23T00:36:11;98377.38;;;12.44;54.32
76378;BME280;65200;49.500;8.654;2024-02-23T00:38:38;98366.09;;;12.04;55.63
76378;BME280;65200;49.500;8.654;2024-02-23T00:41:06;98387.91;;;12.08;56.21
76378;BME280;65200;49.500;8.654;2024-02-23T00:43:37;98402.31;;;12.40;54.18
76378;BME280;65200;49.500;8.654;2024-02-23T00:46:07;98397.38;;;12.54;55.54
76378;BME280;65200;49.500;8.654;2024-02-23T00:48:34;98414.13;;;12.01;55.26
76378;BME280;65200;49.500;8.654;2024-02-23T00:51:03;98399.97;;;11.89;54.42
76378;BME280;65200;49.500;8.654;2024-02-23T00:53:31;98403.22;;;11.91;55.00
76378;BME280;65200;49.500;8.654;2024-02-23T00:55:59;98397.69;;;11.81;53.89
76378;BME280;65200;49.500;8.654;2024-02-23T00:58:27;98399.50;;;11.75;54.50
76378;BME280;65200;49.500;8.654;2024-02-23T01:00:55;98389.81;;;11.91;54.07
76378;BME280;65200;49.500;8.654;2024-02-23T01:03:24;98398.09;;;11.40;55.38
76378;BME280;65200;49.500;8.654;2024-02-23T01:05:51;98393.03;;;11.60;54.24
76378;BME280;65200;49.500;8.654;2024-02-23T01:08:19;98383.72;;;11.46;54.57
76378;BME280;65200;49.500;8.654;2024-02-23T01:10:47;98380.94;;;11.41;54.96
76378;BME280;65200;49.500;8.654;2024-02-23T01:13:15;98383.84;;;11.23;55.19
76378;BME280;65200;49.500;8.654;2024-02-23T01:15:43;98392.91;;;11.50;54.80
76378;BME280;65200;49.500;8.654;2024-02-23T01:18:10;98407.94;;;11.51;54.88
76378;BME280;65200;49.500;8.654;2024-02-23T01:20:40;98405.34;;;11.11;56.00
76378;BME280;65200;49.500;8.654;2024-02-23T01:23:07;98405.03;;;11.69;54.20
76378;BME280;65200;49.500;8.654;2024-02-23T01:25:35;98408.78;;;11.06;56.63
76378;BME280;65200;49.500;8.654;2024-02-23T01:28:04;98426.56;;;11.57;55.72
76378;BME280;65200;49.500;8.654;2024-02-23T01:30:32;98420.81;;;11.82;54.43
76378;BME280;65200;49.500;8.654;2024-02-23T01:32:59;98417.38;;;11.86;54.48
76378;BME280;65200;49.500;8.654;2024-02-23T01:35:27;98423.13;;;11.62;54.89
76378;BME280;65200;49.500;8.654;2024-02-23T01:37:58;98429.97;;;11.86;55.14
76378;BME280;65200;49.500;8.654;2024-02-23T01:40:25;98443.47;;;12.07;55.28
76378;BME280;65200;49.500;8.654;2024-02-23T01:43:00;98431.78;;;11.97;54.51
76378;BME280;65200;49.500;8.654;2024-02-23T01:45:29;98425.84;;;11.78;54.54
76378;BME280;65200;49.500;8.654;2024-02-23T01:47:57;98451.97;;;12.37;52.88
76378;BME280;65200;49.500;8.654;2024-02-23T01:50:25;98511.97;;;11.77;54.43
76378;BME280;65200;49.500;8.654;2024-02-23T01:52:53;98552.91;;;10.65;58.64
76378;BME280;65200;49.500;8.654;2024-02-23T01:55:23;98555.81;;;10.29;58.05
76378;BME280;65200;49.500;8.654;2024-02-23T01:57:50;98546.91;;;10.05;58.54
76378;BME280;65200;49.500;8.654;2024-02-23T02:00:19;98536.03;;;9.36;60.93
76378;BME280;65200;49.500;8.654;2024-02-23T02:02:48;98549.81;;;9.51;60.59
76378;BME280;65200;49.500;8.654;2024-02-23T02:05:16;98545.69;;;10.08;59.24
76378;BME280;65200;49.500;8.654;2024-02-23T02:07:44;98545.34;;;10.16;58.03
76378;BME280;65200;49.500;8.654;2024-02-23T02:10:15;98526.31;;;10.06;58.22
76378;BME280;65200;49.500;8.654;2024-02-23T02:12:44;98537.13;;;9.99;57.90
76378;BME280;65200;49.500;8.654;2024-02-23T02:15:11;98533.13;;;9.67;60.08
76378;BME280;65200;49.500;8.654;2024-02-23T02:17:39;98523.94;;;9.74;58.37
76378;BME280;65200;49.500;8.654;2024-02-23T02:20:11;98518.69;;;10.09;57.84
76378;BME280;65200;49.500;8.654;2024-02-23T02:22:40;98527.06;;;10.47;57.86
76378;BME280;65200;49.500;8.654;2024-02-23T02:25:08;98531.72;;;10.17;58.37
76378;BME280;65200;49.500;8.654;2024-02-23T02:27:35;98536.03;;;10.41;56.69
76378;BME280;65200;49.500;8.654;2024-02-23T02:30:05;98540.16;;;10.83;56.38
76378;BME280;65200;49.500;8.654;2024-02-23T02:32:35;98543.13;;;10.47;56.91
76378;BME280;65200;49.500;8.654;2024-02-23T02:35:03;98546.69;;;10.87;56.63
76378;BME280;65200;49.500;8.654;2024-02-23T02:37:31;98552.69;;;11.06;56.01
76378;BME280;65200;49.500;8.654;2024-02-23T02:39:59;98557.97;;;11.01;56.41
76378;BME280;65200;49.500;8.654;2024-02-23T02:42:26;98558.75;;;10.62;57.40
76378;BME280;65200;49.500;8.654;2024-02-23T02:44:54;98550.69;;;11.25;55.67
76378;BME280;65200;49.500;8.654;2024-02-23T02:47:24;98558.50;;;11.15;56.10
76378;BME280;65200;49.500;8.654;2024-02-23T02:49:51;98554.03;;;11.32;56.05
76378;BME280;65200;49.500;8.654;2024-02-23T02:52:19;98548.00;;;11.25;56.69
76378;BME280;65200;49.500;8.654;2024-02-23T02:54:49;98552.91;;;11.84;55.35
76378;BME280;65200;49.500;8.654;2024-02-23T02:57:17;98545.97;;;11.03;56.33
76378;BME280;65200;49.500;8.654;2024-02-23T02:59:44;98536.06;;;11.04;56.09
76378;BME280;65200;49.500;8.654;2024-02-23T03:02:12;98536.75;;;11.39;55.05
76378;BME280;65200;49.500;8.654;2024-02-23T03:04:47;98530.69;;;11.60;54.46
76378;BME280;65200;49.500;8.654;2024-02-23T03:07:16;98529.28;;;11.01;54.15
76378;BME280;65200;49.500;8.654;2024-02-23T03:09:44;98534.88;;;11.12;54.67
76378;BME280;65200;49.500;8.654;2024-02-23T03:12:11;98532.16;;;11.51;53.46
76378;BME280;65200;49.500;8.654;2024-02-23T03:14:39;98534.78;;;11.35;53.53
76378;BME280;65200;49.500;8.654;2024-02-23T03:17:08;98535.84;;;10.94;54.39
76378;BME280;65200;49.500;8.654;2024-02-23T03:19:36;98535.50;;;11.58;53.38
76378;BME280;65200;49.500;8.654;2024-02-23T03:22:06;98535.31;;;11.20;54.36
76378;BME280;65200;49.500;8.654;2024-02-23T03:24:33;98540.84;;;11.02;54.61
76378;BME280;65200;49.500;8.654;2024-02-23T03:27:01;98549.72;;;11.02;54.31
76378;BME280;65200;49.500;8.654;2024-02-23T03:29:29;98545.13;;;10.63;55.34
76378;BME280;65200;49.500;8.654;2024-02-23T03:31:57;98532.81;;;11.02;54.77
76378;BME280;65200;49.500;8.654;2024-02-23T03:34:25;98528.19;;;10.74;54.86
76378;BME280;65200;49.500;8.654;2024-02-23T03:36:52;98530.41;;;10.77;55.19
76378;BME280;65200;49.500;8.654;2024-02-23T03:39:21;98527.91;;;10.99;55.17
76378;BME280;65200;49.500;8.654;2024-02-23T03:41:49;98529.81;;;11.27;54.18
76378;BME280;65200;49.500;8.654;2024-02-23T03:44:16;98529.84;;;11.15;55.10
76378;BME280;65200;49.500;8.654;2024-02-23T03:46:43;98532.88;;;11.19;54.30
76378;BME280;65200;49.500;8.654;2024-02-23T03:49:11;98524.84;;;11.91;53.64
76378;BME280;65200;49.500;8.654;2024-02-23T03:51:39;98525.22;;;12.50;52.34
76378;BME280;65200;49.500;8.654;2024-02-23T03:54:06;98535.00;;;11.89;52.83
76378;BME280;65200;49.500;8.654;2024-02-23T03:56:39;98541.69;;;11.87;53.35
76378;BME280;65200;49.500;8.654;2024-02-23T03:59:07;98522.63;;;11.44;53.47
76378;BME280;65200;49.500;8.654;2024-02-23T04:01:37;98533.16;;;11.62;53.31
76378;BME280;65200;49.500;8.654;2024-02-23T04:04:05;98534.34;;;11.66;53.47
76378;BME280;65200;49.500;8.654;2024-02-23T04:06:33;98524.59;;;11.93;52.60
76378;BME280;65200;49.500;8.654;2024-02-23T04:09:02;98535.34;;;11.93;52.92
76378;BME280;65200;49.500;8.654;2024-02-23T04:11:31;98537.28;;;11.53;53.88
76378;BME280;65200;49.500;8.654;2024-02-23T04:14:00;98541.56;;;11.65;53.17
76378;BME280;65200;49.500;8.654;2024-02-23T04:16:28;98548.66;;;11.88;52.18
76378;BME280;65200;49.500;8.654;2024-02-23T04:18:56;98559.81;;;11.96;52.42
76378;BME280;65200;49.500;8.654;2024-02-23T04:21:24;98554.72;;;12.11;52.11
76378;BME280;65200;49.500;8.654;2024-02-23T04:23:52;98548.47;;;11.78;50.93
76378;BME280;65200;49.500;8.654;2024-02-23T04:26:20;98552.59;;;11.97;52.03
76378;BME280;65200;49.500;8.654;2024-02-23T04:28:48;98563.09;;;11.42;51.48
76378;BME280;65200;49.500;8.654;2024-02-23T04:31:16;98569.91;;;11.33;52.04
76378;BME280;65200;49.500;8.654;2024-02-23T04:33:44;98561.78;;;12.01;51.34
76378;BME280;65200;49.500;8.654;2024-02-23T04:36:12;98569.06;;;11.72;52.53
76378;BME280;65200;49.500;8.654;2024-02-23T04:38:39;98564.94;;;12.48;51.47
76378;BME280;65200;49.500;8.654;2024-02-23T04:41:07;98562.47;;;11.80;50.37
76378;BME280;65200;49.500;8.654;2024-02-23T04:43:34;98576.19;;;11.67;52.75
76378;BME280;65200;49.500;8.654;2024-02-23T04:46:02;98561.25;;;11.87;51.88
76378;BME280;65200;49.500;8.654;2024-02-23T04:48:31;98561.72;;;12.12;51.59
76378;BME280;65200;49.500;8.654;2024-02-23T04:50:59;98562.75;;;11.39;52.68
76378;BME280;65200;49.500;8.654;2024-02-23T04:53:27;98564.50;;;11.45;51.80
76378;BME280;65200;49.500;8.654;2024-02-23T04:55:55;98562.78;;;11.27;53.36
76378;BME280;65200;49.500;8.654;2024-02-23T04:58:23;98558.63;;;11.20;52.62
76378;BME280;65200;49.500;8.654;2024-02-23T05:00:50;98556.50;;;10.70;53.91
76378;BME280;65200;49.500;8.654;2024-02-23T05:03:18;98558.63;;;10.57;53.73
76378;BME280;65200;49.500;8.654;2024-02-23T05:05:47;98554.75;;;10.87;53.47
76378;BME280;65200;49.500;8.654;2024-02-23T05:08:17;98557.81;;;10.68;53.62
76378;BME280;65200;49.500;8.654;2024-02-23T05:10:46;98557.22;;;10.54;53.95
76378;BME280;65200;49.500;8.654;2024-02-23T05:13:13;98554.78;;;10.41;54.21
76378;BME280;65200;49.500;8.654;2024-02-23T05:15:41;98558.41;;;10.58;54.20
76378;BME280;65200;49.500;8.654;2024-02-23T05:18:09;98559.91;;;10.54;53.89
76378;BME280;65200;49.500;8.654;2024-02-23T05:20:37;98565.38;;;10.36;54.43
76378;BME280;65200;49.500;8.654;2024-02-23T05:23:05;98559.66;;;10.44;54.56
76378;BME280;65200;49.500;8.654;2024-02-23T05:25:34;98561.63;;;10.72;54.38
76378;BME280;65200;49.500;8.654;2024-02-23T05:28:02;98560.81;;;10.83;53.32
76378;BME280;65200;49.500;8.654;2024-02-23T05:30:29;98563.06;;;11.14;53.75
76378;BME280;65200;49.500;8.654;2024-02-23T05:32:57;98551.44;;;11.08;53.72
76378;BME280;65200;49.500;8.654;2024-02-23T05:35:25;98561.59;;;10.83;54.54
76378;BME280;65200;49.500;8.654;2024-02-23T05:37:53;98554.13;;;10.97;55.15
76378;BME280;65200;49.500;8.654;2024-02-23T05:40:23;98558.72;;;11.25;53.95
76378;BME280;65200;49.500;8.654;2024-02-23T05:42:50;98557.19;;;11.29;53.93
76378;BME280;65200;49.500;8.654;2024-02-23T05:45:18;98563.63;;;10.53;55.84
76378;BME280;65200;49.500;8.654;2024-02-23T05:47:46;98582.03;;;10.61;55.75
76378;BME280;65200;49.500;8.654;2024-02-23T05:50:14;98579.59;;;10.60;55.67
76378;BME280;65200;49.500;8.654;2024-02-23T05:52:42;98586.22;;;10.46;55.96
76378;BME280;65200;49.500;8.654;2024-02-23T05:55:10;98580.50;;;10.65;55.90
76378;BME280;65200;49.500;8.654;2024-02-23T05:57:38;98585.38;;;10.80;55.25
76378;BME280;65200;49.500;8.654;2024-02-23T06:00:07;98585.84;;;10.88;54.91
76378;BME280;65200;49.500;8.654;2024-02-23T06:02:34;98602.41;;;10.85;54.70
76378;BME280;65200;49.500;8.654;2024-02-23T06:05:02;98600.88;;;10.89;54.62
76378;BME280;65200;49.500;8.654;2024-02-23T06:07:30;98605.41;;;10.43;55.74
76378;BME280;65200;49.500;8.654;2024-02-23T06:09:58;98612.09;;;10.63;55.14
76378;BME280;65200;49.500;8.654;2024-02-23T06:12:26;98609.97;;;10.54;56.73
76378;BME280;65200;49.500;8.654;2024-02-23T06:14:55;98609.97;;;10.65;55.63
76378;BME280;65200;49.500;8.654;2024-02-23T06:17:24;98608.59;;;10.86;54.98
76378;BME280;65200;49.500;8.654;2024-02-23T06:19:52;98605.06;;;10.85;54.83
76378;BME280;65200;49.500;8.654;2024-02-23T06:22:20;98609.13;;;10.30;55.74
76378;BME280;65200;49.500;8.654;2024-02-23T06:24:48;98611.38;;;10.45;55.92
76378;BME280;65200;49.500;8.654;2024-02-23T06:27:16;98608.34;;;10.53;55.74
76378;BME280;65200;49.500;8.654;2024-02-23T06:29:43;98610.66;;;10.84;54.45
76378;BME280;65200;49.500;8.654;2024-02-23T06:32:12;98606.25;;;10.89;54.67
76378;BME280;65200;49.500;8.654;2024-02-23T06:34:40;98609.97;;;10.65;54.67
76378;BME280;65200;49.500;8.654;2024-02-23T06:37:08;98610.97;;;10.18;55.39
76378;BME280;65200;49.500;8.654;2024-02-23T06:39:36;98614.75;;;10.63;54.31
76378;BME280;65200;49.500;8.654;2024-02-23T06:42:03;98619.88;;;10.42;54.46
76378;BME280;65200;49.500;8.654;2024-02-23T06:44:31;98617.41;;;9.99;54.56
76378;BME280;65200;49.500;8.654;2024-02-23T06:46:59;98615.22;;;10.83;53.04
76378;BME280;65200;49.500;8.654;2024-02-23T06:49:28;98622.88;;;10.22;54.47
76378;BME280;65200;49.500;8.654;2024-02-23T06:51:55;98614.97;;;10.27;54.56
76378;BME280;65200;49.500;8.654;2024-02-23T06:54:23;98609.84;;;10.37;54.53
76378;BME280;65200;49.500;8.654;2024-02-23T06:56:51;98621.91;;;10.17;55.05
76378;BME280;65200;49.500;8.654;2024-02-23T06:59:18;98609.50;;;10.45;53.75
76378;BME280;65200;49.500;8.654;2024-02-23T07:01:49;98612.88;;;10.29;54.58
76378;BME280;65200;49.500;8.654;2024-02-23T07:04:17;98613.53;;;10.13;54.25
76378;BME280;65200;49.500;8.654;2024-02-23T07:06:46;98615.56;;;10.29;53.92
76378;BME280;65200;49.500;8.654;2024-02-23T07:09:14;98620.31;;;10.27;54.18
76378;BME280;65200;49.500;8.654;2024-02-23T07:11:42;98613.91;;;10.40;53.67
76378;BME280;65200;49.500;8.654;2024-02-23T07:14:10;98616.25;;;10.36;53.47
76378;BME280;65200;49.500;8.654;2024-02-23T07:16:40;98630.59;;;10.65;53.35
76378;BME280;65200;49.500;8.654;2024-02-23T07:19:08;98628.00;;;10.35;53.83
76378;BME280;65200;49.500;8.654;2024-02-23T07:21:36;98640.09;;;10.15;54.40
76378;BME280;65200;49.500;8.654;2024-02-23T07:24:10;98641.94;;;10.14;54.07
76378;BME280;65200;49.500;8.654;2024-02-23T07:26:37;98643.81;;;9.66;54.20
76378;BME280;65200;49.500;8.654;2024-02-23T07:29:05;98654.28;;;9.97;53.40
76378;BME280;65200;49.500;8.654;2024-02-23T07:31:33;98654.88;;;9.99;53.73
76378;BME280;65200;49.500;8.654;2024-02-23T07:34:00;98647.31;;;9.96;54.13
76378;BME280;65200;49.500;8.654;2024-02-23T07:36:29;98659.84;;;10.14;54.30
76378;BME280;65200;49.500;8.654;2024-02-23T07:38:56;98667.88;;;9.66;54.48
76378;BME280;65200;49.500;8.654;2024-02-23T07:41:25;98671.63;;;10.13;53.80
76378;BME280;65200;49.500;8.654;2024-02-23T07:43:53;98661.06;;;10.29;53.07
76378;BME280;65200;49.500;8.654;2024-02-23T07:46:21;98666.44;;;10.29;53.42
76378;BME280;65200;49.500;8.654;2024-02-23T07:48:52;98658.19;;;10.88;51.98
76378;BME280;65200;49.500;8.654;2024-02-23T07:51:20;98655.97;;;10.62;52.21
76378;BME280;65200;49.500;8.654;2024-02-23T07:53:48;98649.00;;;10.84;51.65
76378;BME280;65200;49.500;8.654;2024-02-23T07:56:16;98667.97;;;10.48;52.63
76378;BME280;65200;49.500;8.654;2024-02-23T07:58:45;98666.34;;;10.59;51.64
76378;BME280;65200;49.500;8.654;2024-02-23T08:01:14;98668.13;;;10.76;51.31
76378;BME280;65200;49.500;8.654;2024-02-23T08:03:43;98675.94;;;10.78;51.39
76378;BME280;65200;49.500;8.654;2024-02-23T08:06:10;98667.59;;;11.26;50.35
76378;BME280;65200;49.500;8.654;2024-02-23T08:08:39;98672.22;;;11.65;49.11
76378;BME280;65200;49.500;8.654;2024-02-23T08:11:07;98675.72;;;11.54;50.22
76378;BME280;65200;49.500;8.654;2024-02-23T08:13:35;98673.50;;;11.62;49.32
76378;BME280;65200;49.500;8.654;2024-02-23T08:16:04;98677.66;;;12.09;49.42
76378;BME280;65200;49.500;8.654;2024-02-23T08:18:32;98668.19;;;12.07;48.85
76378;BME280;65200;49.500;8.654;2024-02-23T08:20:59;98675.56;;;11.83;48.18
76378;BME280;65200;49.500;8.654;2024-02-23T08:23:29;98673.84;;;11.77;48.30
76378;BME280;65200;49.500;8.654;2024-02-23T08:25:58;98668.34;;;11.09;49.75
76378;BME280;65200;49.500;8.654;2024-02-23T08:28:27;98681.53;;;11.62;49.02
76378;BME280;65200;49.500;8.654;2024-02-23T08:30:54;98670.97;;;11.44;48.17
76378;BME280;65200;49.500;8.654;2024-02-23T08:33:23;98672.69;;;11.50;48.87
76378;BME280;65200;49.500;8.654;2024-02-23T08:35:51;98669.16;;;11.73;48.45
76378;BME280;65200;49.500;8.654;2024-02-23T08:38:19;98676.25;;;11.28;47.94
76378;BME280;65200;49.500;8.654;2024-02-23T08:40:46;98662.09;;;11.95;48.40
76378;BME280;65200;49.500;8.654;2024-02-23T08:43:14;98662.88;;;11.95;48.71
76378;BME280;65200;49.500;8.654;2024-02-23T08:45:42;98657.22;;;11.29;48.48
76378;BME280;65200;49.500;8.654;2024-02-23T08:48:09;98653.94;;;11.90;46.82
76378;BME280;65200;49.500;8.654;2024-02-23T08:50:42;98650.09;;;11.86;46.73
76378;BME280;65200;49.500;8.654;2024-02-23T08:53:10;98650.22;;;11.79;48.38
76378;BME280;65200;49.500;8.654;2024-02-23T08:55:38;98638.78;;;12.28;48.64
76378;BME280;65200;49.500;8.654;2024-02-23T08:58:06;98642.19;;;11.79;47.40
76378;BME280;65200;49.500;8.654;2024-02-23T09:00:33;98637.88;;;12.39;46.92
76378;BME280;65200;49.500;8.654;2024-02-23T09:03:03;98631.56;;;12.29;47.80
76378;BME280;65200;49.500;8.654;2024-02-23T09:05:31;98636.84;;;12.24;47.62
76378;BME280;65200;49.500;8.654;2024-02-23T09:08:00;98638.41;;;11.64;48.36
76378;BME280;65200;49.500;8.654;2024-02-23T09:10:28;98630.69;;;13.11;47.35
76378;BME280;65200;49.500;8.654;2024-02-23T09:12:56;98634.47;;;12.44;47.92
76378;BME280;65200;49.500;8.654;2024-02-23T09:15:23;98636.19;;;11.89;48.38
76378;BME280;65200;49.500;8.654;2024-02-23T09:17:51;98626.56;;;11.76;47.51
76378;BME280;65200;49.500;8.654;2024-02-23T09:20:18;98618.75;;;12.03;49.36
76378;BME280;65200;49.500;8.654;2024-02-23T09:22:46;98625.66;;;12.15;49.17
76378;BME280;65200;49.500;8.654;2024-02-23T09:25:15;98619.16;;;12.11;47.50
76378;BME280;65200;49.500;8.654;2024-02-23T09:27:43;98625.19;;;12.52;47.17
76378;BME280;65200;49.500;8.654;2024-02-23T09:30:12;98619.03;;;11.90;48.28
76378;BME280;65200;49.500;8.654;2024-02-23T09:32:41;98619.56;;;12.20;47.00
76378;BME280;65200;49.500;8.654;2024-02-23T09:35:09;98609.91;;;12.52;48.15
76378;BME280;65200;49.500;8.654;2024-02-23T09:37:36;98615.75;;;12.32;48.10
76378;BME280;65200;49.500;8.654;2024-02-23T09:40:05;98614.84;;;12.27;48.32
76378;BME280;65200;49.500;8.654;2024-02-23T09:42:34;98611.78;;;13.06;45.87
76378;BME280;65200;49.500;8.654;2024-02-23T09:45:02;98620.94;;;13.48;46.00
76378;BME280;65200;49.500;8.654;2024-02-23T09:47:31;98621.94;;;12.66;47.54
76378;BME280;65200;49.500;8.654;2024-02-23T09:50:01;98616.16;;;12.74;45.92
76378;BME280;65200;49.500;8.654;2024-02-23T09:52:32;98617.56;;;12.98;46.66
76378;BME280;65200;49.500;8.654;2024-02-23T09:54:59;98621.78;;;12.56;45.13
76378;BME280;65200;49.500;8.654;2024-02-23T09:57:27;98618.84;;;12.58;46.22
76378;BME280;65200;49.500;8.654;2024-02-23T09:59:56;98616.38;;;12.73;46.20
76378;BME280;65200;49.500;8.654;2024-02-23T10:02:24;98622.97;;;13.36;44.02
76378;BME280;65200;49.500;8.654;2024-02-23T10:04:52;98612.41;;;12.25;45.72
76378;BME280;65200;49.500;8.654;2024-02-23T10:07:23;98626.88;;;13.07;45.21
76378;BME280;65200;49.500;8.654;2024-02-23T10:09:52;98616.72;;;12.76;44.50
76378;BME280;65200;49.500;8.654;2024-02-23T10:12:21;98621.84;;;12.28;46.57
76378;BME280;65200;49.500;8.654;2024-02-23T10:14:48;98626.59;;;13.25;44.57
76378;BME280;65200;49.500;8.654;2024-02-23T10:17:17;98620.97;;;13.27;45.43
76378;BME280;65200;49.500;8.654;2024-02-23T10:19:46;98615.94;;;12.97;45.65
76378;BME280;65200;49.500;8.654;2024-02-23T10:22:14;98632.47;;;13.65;43.09
76378;BME280;65200;49.500;8.654;2024-02-23T10:24:42;98621.78;;;13.11;45.13
76378;BME280;65200;49.500;8.654;2024-02-23T10:27:09;98620.06;;;12.67;45.96
76378;BME280;65200;49.500;8.654;2024-02-23T10:29:37;98618.19;;;13.43;44.07
76378;BME280;65200;49.500;8.654;2024-02-23T10:32:05;98634.28;;;14.35;43.55
76378;BME280;65200;49.500;8.654;2024-02-23T10:34:36;98635.06;;;14.09;42.84
76378;BME280;65200;49.500;8.654;2024-02-23T10:37:10;98639.28;;;14.00;42.92
76378;BME280;65200;49.500;8.654;2024-02-23T10:39:38;98635.06;;;13.17;44.68
76378;BME280;65200;49.500;8.654;2024-02-23T10:42:09;98632.47;;;13.65;43.80
76378;BME280;65200;49.500;8.654;2024-02-23T10:44:37;98632.34;;;13.55;45.20
76378;BME280;65200;49.500;8.654;2024-02-23T10:47:06;98636.91;;;13.55;43.89
76378;BME280;65200;49.500;8.654;2024-02-23T10:49:36;98635.19;;;13.27;45.05
76378;BME280;65200;49.500;8.654;2024-02-23T10:52:05;98628.63;;;13.61;44.14
76378;BME280;65200;49.500;8.654;2024-02-23T10:54:34;98629.56;;;14.52;43.39
76378;BME280;65200;49.500;8.654;2024-02-23T10:57:03;98629.41;;;14.10;43.10
76378;BME280;65200;49.500;8.654;2024-02-23T10:59:31;98632.16;;;13.19;44.25
76378;BME280;65200;49.500;8.654;2024-02-23T11:01:59;98633.03;;;13.67;43.37
76378;BME280;65200;49.500;8.654;2024-02-23T11:04:28;98629.81;;;13.27;44.47
76378;BME280;65200;49.500;8.654;2024-02-23T11:06:59;98615.44;;;13.00;46.70
76378;BME280;65200;49.500;8.654;2024-02-23T11:09:31;98628.75;;;12.74;45.83
76378;BME280;65200;49.500;8.654;2024-02-23T11:11:59;98616.28;;;12.84;45.96
76378;BME280;65200;49.500;8.654;2024-02-23T11:14:32;98610.00;;;13.33;45.38
76378;BME280;65200;49.500;8.654;2024-02-23T11:17:00;98608.97;;;14.36;44.65
76378;BME280;65200;49.500;8.654;2024-02-23T11:19:35;98596.97;;;13.95;42.98
76378;BME280;65200;49.500;8.654;2024-02-23T11:22:09;98604.75;;;13.92;43.94
76378;BME280;65200;49.500;8.654;2024-02-23T11:24:49;98594.53;;;13.94;44.21
76378;BME280;65200;49.500;8.654;2024-02-23T11:27:23;98602.63;;;13.94;43.20
76378;BME280;65200;49.500;8.654;2024-02-23T11:29:59;98601.75;;;13.40;42.99
76378;BME280;65200;49.500;8.654;2024-02-23T11:32:36;98604.03;;;14.28;42.48
76378;BME280;65200;49.500;8.654;2024-02-23T11:35:06;98601.97;;;13.60;43.57
76378;BME280;65200;49.500;8.654;2024-02-23T11:37:45;98597.50;;;13.97;43.34
76378;BME280;65200;49.500;8.654;2024-02-23T11:40:13;98587.44;;;14.77;43.72
76378;BME280;65200;49.500;8.654;2024-02-23T11:42:41;98596.00;;;13.79;42.91
76378;BME280;65200;49.500;8.654;2024-02-23T11:45:10;98593.44;;;13.41;43.76
76378;BME280;65200;49.500;8.654;2024-02-23T11:47:38;98589.00;;;13.78;43.74
76378;BME280;65200;49.500;8.654;2024-02-23T11:50:08;98579.63;;;13.86;44.42
76378;BME280;65200;49.500;8.654;2024-02-23T11:52:37;98576.63;;;14.36;42.57
76378;BME280;65200;49.500;8.654;2024-02-23T11:55:07;98577.06;;;14.59;42.66
76378;BME280;65200;49.500;8.654;2024-02-23T11:57:35;98577.22;;;14.48;43.94
76378;BME280;65200;49.500;8.654;2024-02-23T12:00:14;98585.41;;;14.58;43.28
76378;BME280;65200;49.500;8.654;2024-02-23T12:02:43;98581.94;;;14.26;43.97
76378;BME280;65200;49.500;8.654;2024-02-23T12:05:11;98589.34;;;13.60;44.49
76378;BME280;65200;49.500;8.654;2024-02-23T12:07:39;98586.22;;;14.27;43.19
76378;BME280;65200;49.500;8.654;2024-02-23T12:10:12;98590.72;;;13.41;44.04
76378;BME280;65200;49.500;8.654;2024-02-23T12:12:40;98593.59;;;13.83;44.18
76378;BME280;65200;49.500;8.654;2024-02-23T12:15:08;98588.59;;;14.23;44.29
76378;BME280;65200;49.500;8.654;2024-02-23T12:17:36;98588.31;;;13.45;43.72
76378;BME280;65200;49.500;8.654;2024-02-23T12:20:04;98591.75;;;13.84;43.07
76378;BME280;65200;49.500;8.654;2024-02-23T12:22:34;98591.84;;;13.94;44.24
76378;BME280;65200;49.500;8.654;2024-02-23T12:25:03;98588.44;;;13.28;45.70
76378;BME280;65200;49.500;8.654;2024-02-23T12:27:32;98585.22;;;13.53;47.12
76378;BME280;65200;49.500;8.654;2024-02-23T12:29:59;98572.94;;;13.89;46.14
76378;BME280;65200;49.500;8.654;2024-02-23T12:32:27;98578.31;;;13.62;46.64
76378;BME280;65200;49.500;8.654;2024-02-23T12:34:56;98580.63;;;13.53;49.29
76378;BME280;65200;49.500;8.654;2024-02-23T12:37:23;98576.13;;;13.59;48.67
76378;BME280;65200;49.500;8.654;2024-02-23T12:39:51;98577.09;;;14.28;46.42
76378;BME280;65200;49.500;8.654;2024-02-23T12:42:19;98574.41;;;14.01;47.12
76378;BME280;65200;49.500;8.654;2024-02-23T12:44:48;98585.88;;;13.43;46.59
76378;BME280;65200;49.500;8.654;2024-02-23T12:47:15;98592.91;;;13.93;46.39
76378;BME280;65200;49.500;8.654;2024-02-23T12:49:43;98598.16;;;13.56;48.69
76378;BME280;65200;49.500;8.654;2024-02-23T12:52:12;98598.75;;;13.36;47.68
76378;BME280;65200;49.500;8.654;2024-02-23T12:54:39;98590.59;;;13.31;47.56
76378;BME280;65200;49.500;8.654;2024-02-23T12:57:08;98583.53;;;14.27;46.21
76378;BME280;65200;49.500;8.654;2024-02-23T12:59:35;98575.75;;;14.30;47.32
76378;BME280;65200;49.500;8.654;2024-02-23T13:02:06;98574.75;;;14.41;45.63
76378;BME280;65200;49.500;8.654;2024-02-23T13:04:35;98567.13;;;15.11;46.28
76378;BME280;65200;49.500;8.654;2024-02-23T13:07:03;98560.59;;;15.64;46.54